sensor_id;sensor_type;location;lat;lon;timestamp;pressure;altitude;pressure_sealevel;temperature;humidity
31044;BME280;17710;52.520;13.352;2023-10-31T00:00:18;99187.16;;;18.40;62.45
31044;BME280;17710;52.520;13.352;2023-10-31T00:02:44;99190.53;;;18.42;62.70
31044;BME280;17710;52.520;13.352;2023-10-31T00:05:12;99190.81;;;18.39;62.70
31044;BME280;17710;52.520;13.352;2023-10-31T00:07:39;99191.38;;;18.14;63.61
31044;BME280;17710;52.520;13.352;2023-10-31T00:10:06;99189.56;;;18.14;63.91
31044;BME280;17710;52.520;13.352;2023-10-31T00:12:36;99202.22;;;18.03;64.25
31044;BME280;17710;52.520;13.352;2023-10-31T00:15:04;99208.09;;;17.97;65.14
31044;BME280;17710;52.520;13.352;2023-10-31T00:17:31;99196.31;;;18.09;64.71
31044;BME280;17710;52.520;13.352;2023-10-31T00:19:58;99196.16;;;18.20;64.45
31044;BME280;17710;52.520;13.352;2023-10-31T00:22:26;99226.16;;;18.23;64.56
31044;BME280;17710;52.520;13.352;2023-10-31T00:24:52;99220.03;;;17.92;65.27
31044;BME280;17710;52.520;13.352;2023-10-31T00:27:18;99217.09;;;17.96;65.74
31044;BME280;17710;52.520;13.352;2023-10-31T00:29:45;99228.78;;;17.95;65.60
31044;BME280;17710;52.520;13.352;2023-10-31T00:32:11;99219.13;;;17.73;66.48
31044;BME280;17710;52.520;13.352;2023-10-31T00:34:38;99204.25;;;17.80;66.21
31044;BME280;17710;52.520;13.352;2023-10-31T00:37:04;99200.09;;;17.97;65.79
31044;BME280;17710;52.520;13.352;2023-10-31T00:39:32;99194.88;;;17.95;66.29
31044;BME280;17710;52.520;13.352;2023-10-31T00:42:00;99191.91;;;17.88;66.56
31044;BME280;17710;52.520;13.352;2023-10-31T00:44:26;99198.09;;;17.49;68.66
31044;BME280;17710;52.520;13.352;2023-10-31T00:46:53;99180.66;;;17.95;66.81
31044;BME280;17710;52.520;13.352;2023-10-31T00:49:19;99182.94;;;18.09;65.94
31044;BME280;17710;52.520;13.352;2023-10-31T00:51:46;99185.59;;;17.89;67.08
31044;BME280;17710;52.520;13.352;2023-10-31T00:54:12;99179.53;;;17.78;67.60
31044;BME280;17710;52.520;13.352;2023-10-31T00:56:41;99180.63;;;17.75;68.25
31044;BME280;17710;52.520;13.352;2023-10-31T00:59:06;99197.09;;;17.71;68.92
31044;BME280;17710;52.520;13.352;2023-10-31T01:01:33;99195.72;;;17.56;69.26
31044;BME280;17710;52.520;13.352;2023-10-31T01:03:59;99197.69;;;17.53;69.90
31044;BME280;17710;52.520;13.352;2023-10-31T01:06:26;99198.66;;;17.43;69.96
31044;BME280;17710;52.520;13.352;2023-10-31T01:08:52;99198.00;;;17.60;69.87
31044;BME280;17710;52.520;13.352;2023-10-31T01:11:18;99178.16;;;17.53;69.93
31044;BME280;17710;52.520;13.352;2023-10-31T01:13:46;99167.13;;;17.67;69.67
31044;BME280;17710;52.520;13.352;2023-10-31T01:16:13;99157.59;;;17.84;69.00
31044;BME280;17710;52.520;13.352;2023-10-31T01:18:39;99153.22;;;17.73;69.18
31044;BME280;17710;52.520;13.352;2023-10-31T01:21:06;99153.06;;;17.65;69.88
31044;BME280;17710;52.520;13.352;2023-10-31T01:23:37;99147.47;;;17.87;69.76
31044;BME280;17710;52.520;13.352;2023-10-31T01:26:04;99146.91;;;17.93;69.97
31044;BME280;17710;52.520;13.352;2023-10-31T01:28:30;99132.56;;;17.95;69.96
31044;BME280;17710;52.520;13.352;2023-10-31T01:30:58;99124.13;;;18.18;69.33
31044;BME280;17710;52.520;13.352;2023-10-31T01:33:25;99115.53;;;18.05;69.65
31044;BME280;17710;52.520;13.352;2023-10-31T01:35:51;99112.31;;;17.92;70.32
31044;BME280;17710;52.520;13.352;2023-10-31T01:38:18;99113.16;;;17.92;70.83
31044;BME280;17710;52.520;13.352;2023-10-31T01:40:48;99123.81;;;17.73;71.76
31044;BME280;17710;52.520;13.352;2023-10-31T01:43:29;99150.59;;;17.43;73.99
31044;BME280;17710;52.520;13.352;2023-10-31T01:45:55;99144.50;;;17.31;74.24
31044;BME280;17710;52.520;13.352;2023-10-31T01:48:24;99127.22;;;17.26;74.79
31044;BME280;17710;52.520;13.352;2023-10-31T01:50:50;99122.63;;;17.47;73.70
31044;BME280;17710;52.520;13.352;2023-10-31T01:53:18;99120.91;;;17.36;74.57
31044;BME280;17710;52.520;13.352;2023-10-31T01:55:45;99129.22;;;17.43;74.80
31044;BME280;17710;52.520;13.352;2023-10-31T01:58:12;99117.81;;;17.41;74.52
31044;BME280;17710;52.520;13.352;2023-10-31T02:00:40;99110.47;;;17.24;75.76
31044;BME280;17710;52.520;13.352;2023-10-31T02:03:08;99117.28;;;17.47;75.10
31044;BME280;17710;52.520;13.352;2023-10-31T02:05:36;99100.16;;;17.59;74.18
31044;BME280;17710;52.520;13.352;2023-10-31T02:08:03;99083.34;;;17.87;73.34
31044;BME280;17710;52.520;13.352;2023-10-31T02:10:29;99077.66;;;17.52;74.41
31044;BME280;17710;52.520;13.352;2023-10-31T02:12:56;99069.00;;;17.69;74.09
31044;BME280;17710;52.520;13.352;2023-10-31T02:15:22;99075.03;;;17.62;74.64
31044;BME280;17710;52.520;13.352;2023-10-31T02:17:49;99076.03;;;17.70;74.41
31044;BME280;17710;52.520;13.352;2023-10-31T02:20:15;99082.47;;;17.58;74.89
31044;BME280;17710;52.520;13.352;2023-10-31T02:22:43;99060.50;;;17.45;75.66
31044;BME280;17710;52.520;13.352;2023-10-31T02:25:16;99049.75;;;17.85;73.80
31044;BME280;17710;52.520;13.352;2023-10-31T02:27:43;99066.94;;;17.33;76.05
31044;BME280;17710;52.520;13.352;2023-10-31T02:30:10;99054.03;;;17.47;75.60
31044;BME280;17710;52.520;13.352;2023-10-31T02:32:37;99036.31;;;17.37;76.19
31044;BME280;17710;52.520;13.352;2023-10-31T02:35:04;99036.94;;;17.69;75.24
31044;BME280;17710;52.520;13.352;2023-10-31T02:37:31;99041.63;;;17.27;76.46
31044;BME280;17710;52.520;13.352;2023-10-31T02:39:59;99057.94;;;17.34;77.02
31044;BME280;17710;52.520;13.352;2023-10-31T02:42:26;99062.00;;;17.19;77.96
31044;BME280;17710;52.520;13.352;2023-10-31T02:44:53;99065.22;;;17.12;78.06
31044;BME280;17710;52.520;13.352;2023-10-31T02:47:19;99059.03;;;17.12;78.33
31044;BME280;17710;52.520;13.352;2023-10-31T02:49:46;99056.81;;;17.17;77.68
31044;BME280;17710;52.520;13.352;2023-10-31T02:52:13;99054.00;;;17.19;77.51
31044;BME280;17710;52.520;13.352;2023-10-31T02:54:39;99043.19;;;17.39;76.91
31044;BME280;17710;52.520;13.352;2023-10-31T02:57:07;99043.88;;;17.12;77.75
31044;BME280;17710;52.520;13.352;2023-10-31T02:59:33;99041.22;;;17.22;77.35
31044;BME280;17710;52.520;13.352;2023-10-31T03:02:00;99032.66;;;17.19;77.06
31044;BME280;17710;52.520;13.352;2023-10-31T03:04:27;99037.44;;;17.25;77.31
31044;BME280;17710;52.520;13.352;2023-10-31T03:06:53;99022.56;;;17.32;77.09
31044;BME280;17710;52.520;13.352;2023-10-31T03:09:20;99028.00;;;17.21;77.17
31044;BME280;17710;52.520;13.352;2023-10-31T03:11:46;99035.69;;;17.04;77.80
31044;BME280;17710;52.520;13.352;2023-10-31T03:14:14;99029.81;;;17.10;78.10
31044;BME280;17710;52.520;13.352;2023-10-31T03:16:40;99023.94;;;17.17;78.10
31044;BME280;17710;52.520;13.352;2023-10-31T03:19:07;99023.34;;;17.03;78.33
31044;BME280;17710;52.520;13.352;2023-10-31T03:21:34;99025.03;;;17.04;78.62
31044;BME280;17710;52.520;13.352;2023-10-31T03:24:00;99017.94;;;16.84;79.01
31044;BME280;17710;52.520;13.352;2023-10-31T03:26:27;99025.78;;;16.76;79.29
31044;BME280;17710;52.520;13.352;2023-10-31T03:28:53;99022.00;;;16.79;79.70
31044;BME280;17710;52.520;13.352;2023-10-31T03:31:24;99018.19;;;16.81;79.52
31044;BME280;17710;52.520;13.352;2023-10-31T03:33:50;99034.00;;;17.03;78.77
31044;BME280;17710;52.520;13.352;2023-10-31T03:36:18;99031.09;;;16.76;79.12
31044;BME280;17710;52.520;13.352;2023-10-31T03:38:45;99033.09;;;16.84;79.55
31044;BME280;17710;52.520;13.352;2023-10-31T03:41:11;99034.00;;;17.03;78.68
31044;BME280;17710;52.520;13.352;2023-10-31T03:43:38;99035.66;;;16.85;78.87
31044;BME280;17710;52.520;13.352;2023-10-31T03:46:05;99040.13;;;16.85;79.39
31044;BME280;17710;52.520;13.352;2023-10-31T03:48:33;99033.00;;;16.95;79.10
31044;BME280;17710;52.520;13.352;2023-10-31T03:50:59;99035.16;;;16.70;79.59
31044;BME280;17710;52.520;13.352;2023-10-31T03:53:25;99041.75;;;17.06;78.66
31044;BME280;17710;52.520;13.352;2023-10-31T03:55:52;99045.22;;;16.97;79.08
31044;BME280;17710;52.520;13.352;2023-10-31T03:58:18;99036.94;;;17.00;79.04
31044;BME280;17710;52.520;13.352;2023-10-31T04:00:44;99042.13;;;16.92;78.88
31044;BME280;17710;52.520;13.352;2023-10-31T04:03:11;99044.72;;;17.13;78.00
31044;BME280;17710;52.520;13.352;2023-10-31T04:05:39;99043.97;;;17.01;78.60
31044;BME280;17710;52.520;13.352;2023-10-31T04:08:05;99048.56;;;16.90;78.72
31044;BME280;17710;52.520;13.352;2023-10-31T04:10:30;99049.66;;;16.87;79.07
31044;BME280;17710;52.520;13.352;2023-10-31T04:12:57;99046.19;;;16.96;78.70
31044;BME280;17710;52.520;13.352;2023-10-31T04:15:23;99046.00;;;16.79;79.07
31044;BME280;17710;52.520;13.352;2023-10-31T04:17:49;99038.69;;;16.81;79.52
31044;BME280;17710;52.520;13.352;2023-10-31T04:20:16;99044.97;;;16.70;80.11
31044;BME280;17710;52.520;13.352;2023-10-31T04:22:44;99036.72;;;16.73;79.76
31044;BME280;17710;52.520;13.352;2023-10-31T04:25:10;99043.69;;;16.64;80.28
31044;BME280;17710;52.520;13.352;2023-10-31T04:27:37;99042.38;;;16.59;80.46
31044;BME280;17710;52.520;13.352;2023-10-31T04:30:04;99041.91;;;16.23;82.15
31044;BME280;17710;52.520;13.352;2023-10-31T04:32:31;99033.66;;;16.57;81.14
31044;BME280;17710;52.520;13.352;2023-10-31T04:34:57;99033.16;;;16.42;81.52
31044;BME280;17710;52.520;13.352;2023-10-31T04:37:24;99029.00;;;16.49;82.17
31044;BME280;17710;52.520;13.352;2023-10-31T04:39:52;99030.50;;;16.63;81.42
31044;BME280;17710;52.520;13.352;2023-10-31T04:42:19;99028.19;;;16.58;81.32
31044;BME280;17710;52.520;13.352;2023-10-31T04:44:45;99024.25;;;16.73;81.02
31044;BME280;17710;52.520;13.352;2023-10-31T04:47:12;99023.47;;;16.62;81.41
31044;BME280;17710;52.520;13.352;2023-10-31T04:49:38;99022.63;;;16.61;81.83
31044;BME280;17710;52.520;13.352;2023-10-31T04:52:05;99013.38;;;16.65;81.74
31044;BME280;17710;52.520;13.352;2023-10-31T04:54:31;99016.09;;;16.54;82.52
31044;BME280;17710;52.520;13.352;2023-10-31T04:56:59;99019.41;;;16.67;81.79
31044;BME280;17710;52.520;13.352;2023-10-31T04:59:26;99019.47;;;16.77;81.46
31044;BME280;17710;52.520;13.352;2023-10-31T05:01:53;99024.25;;;16.83;81.54
31044;BME280;17710;52.520;13.352;2023-10-31T05:04:20;99024.81;;;16.77;81.91
31044;BME280;17710;52.520;13.352;2023-10-31T05:06:47;99018.38;;;16.89;81.30
31044;BME280;17710;52.520;13.352;2023-10-31T05:09:14;99017.88;;;16.65;82.43
31044;BME280;17710;52.520;13.352;2023-10-31T05:11:40;99010.91;;;16.73;82.19
31044;BME280;17710;52.520;13.352;2023-10-31T05:14:09;99020.09;;;16.60;83.28
31044;BME280;17710;52.520;13.352;2023-10-31T05:16:40;99016.69;;;16.58;83.21
31044;BME280;17710;52.520;13.352;2023-10-31T05:19:07;99029.53;;;16.64;83.26
31044;BME280;17710;52.520;13.352;2023-10-31T05:21:33;99025.50;;;16.79;82.84
31044;BME280;17710;52.520;13.352;2023-10-31T05:23:59;99025.91;;;16.74;82.80
31044;BME280;17710;52.520;13.352;2023-10-31T05:26:26;99020.84;;;16.71;82.81
31044;BME280;17710;52.520;13.352;2023-10-31T05:28:53;99015.22;;;16.65;83.46
31044;BME280;17710;52.520;13.352;2023-10-31T05:31:20;99017.22;;;16.72;83.46
31044;BME280;17710;52.520;13.352;2023-10-31T05:33:47;99022.91;;;16.98;82.34
31044;BME280;17710;52.520;13.352;2023-10-31T05:36:20;99024.00;;;16.96;82.43
31044;BME280;17710;52.520;13.352;2023-10-31T05:38:47;99016.31;;;17.02;82.08
31044;BME280;17710;52.520;13.352;2023-10-31T05:41:14;99017.94;;;16.84;83.29
31044;BME280;17710;52.520;13.352;2023-10-31T05:43:41;99028.13;;;17.00;82.81
31044;BME280;17710;52.520;13.352;2023-10-31T05:46:07;99025.94;;;16.84;82.86
31044;BME280;17710;52.520;13.352;2023-10-31T05:48:37;99016.97;;;16.85;83.85
31044;BME280;17710;52.520;13.352;2023-10-31T05:51:04;99021.34;;;16.86;83.78
31044;BME280;17710;52.520;13.352;2023-10-31T05:53:30;99021.09;;;16.99;83.37
31044;BME280;17710;52.520;13.352;2023-10-31T05:55:59;99024.84;;;16.96;83.51
31044;BME280;17710;52.520;13.352;2023-10-31T05:58:26;99030.47;;;16.93;83.85
31044;BME280;17710;52.520;13.352;2023-10-31T06:00:52;99030.91;;;17.08;83.20
31044;BME280;17710;52.520;13.352;2023-10-31T06:03:19;99031.59;;;17.00;83.55
31044;BME280;17710;52.520;13.352;2023-10-31T06:05:47;99032.31;;;17.02;83.43
31044;BME280;17710;52.520;13.352;2023-10-31T06:08:13;99036.44;;;16.76;84.56
31044;BME280;17710;52.520;13.352;2023-10-31T06:10:39;99041.72;;;16.97;84.11
31044;BME280;17710;52.520;13.352;2023-10-31T06:13:06;99035.41;;;16.98;84.40
31044;BME280;17710;52.520;13.352;2023-10-31T06:15:32;99041.16;;;16.93;84.04
31044;BME280;17710;52.520;13.352;2023-10-31T06:17:59;99036.25;;;16.68;85.55
31044;BME280;17710;52.520;13.352;2023-10-31T06:20:26;99046.16;;;16.56;86.82
31044;BME280;17710;52.520;13.352;2023-10-31T06:22:53;99046.91;;;16.38;88.14
31044;BME280;17710;52.520;13.352;2023-10-31T06:25:20;99043.59;;;16.24;88.73
31044;BME280;17710;52.520;13.352;2023-10-31T06:27:46;99040.78;;;16.47;88.17
31044;BME280;17710;52.520;13.352;2023-10-31T06:30:13;99049.94;;;16.54;87.88
31044;BME280;17710;52.520;13.352;2023-10-31T06:32:39;99056.25;;;16.53;87.98
31044;BME280;17710;52.520;13.352;2023-10-31T06:35:06;99054.63;;;16.61;87.45
31044;BME280;17710;52.520;13.352;2023-10-31T06:37:33;99042.09;;;16.83;87.03
31044;BME280;17710;52.520;13.352;2023-10-31T06:40:03;99065.06;;;16.74;87.19
31044;BME280;17710;52.520;13.352;2023-10-31T06:42:30;99067.13;;;16.91;86.04
31044;BME280;17710;52.520;13.352;2023-10-31T06:44:56;99072.09;;;16.75;87.34
31044;BME280;17710;52.520;13.352;2023-10-31T06:47:23;99073.69;;;16.87;87.12
31044;BME280;17710;52.520;13.352;2023-10-31T06:49:49;99072.16;;;16.94;86.95
31044;BME280;17710;52.520;13.352;2023-10-31T06:52:16;99078.41;;;16.74;87.71
31044;BME280;17710;52.520;13.352;2023-10-31T06:54:43;99071.59;;;16.91;86.96
31044;BME280;17710;52.520;13.352;2023-10-31T06:57:10;99075.28;;;16.99;86.63
31044;BME280;17710;52.520;13.352;2023-10-31T06:59:37;99089.13;;;16.84;87.08
31044;BME280;17710;52.520;13.352;2023-10-31T07:02:04;99090.16;;;16.92;87.61
31044;BME280;17710;52.520;13.352;2023-10-31T07:04:31;99089.06;;;17.04;86.72
31044;BME280;17710;52.520;13.352;2023-10-31T07:06:57;99082.78;;;17.15;86.27
31044;BME280;17710;52.520;13.352;2023-10-31T07:09:25;99087.97;;;17.17;85.85
31044;BME280;17710;52.520;13.352;2023-10-31T07:11:52;99090.91;;;17.13;85.97
31044;BME280;17710;52.520;13.352;2023-10-31T07:14:20;99094.19;;;17.27;85.21
31044;BME280;17710;52.520;13.352;2023-10-31T07:16:47;99112.84;;;17.17;86.38
31044;BME280;17710;52.520;13.352;2023-10-31T07:19:14;99119.56;;;17.11;86.86
31044;BME280;17710;52.520;13.352;2023-10-31T07:21:40;99120.72;;;16.88;88.01
31044;BME280;17710;52.520;13.352;2023-10-31T07:24:08;99129.91;;;16.74;88.63
31044;BME280;17710;52.520;13.352;2023-10-31T07:26:34;99125.78;;;16.40;89.11
31044;BME280;17710;52.520;13.352;2023-10-31T07:29:01;99134.22;;;16.45;87.51
31044;BME280;17710;52.520;13.352;2023-10-31T07:31:28;99129.97;;;16.43;86.72
31044;BME280;17710;52.520;13.352;2023-10-31T07:33:55;99125.56;;;16.53;84.65
31044;BME280;17710;52.520;13.352;2023-10-31T07:36:22;99137.44;;;16.60;84.46
31044;BME280;17710;52.520;13.352;2023-10-31T07:38:48;99139.88;;;16.52;83.76
31044;BME280;17710;52.520;13.352;2023-10-31T07:41:15;99139.16;;;16.50;82.89
31044;BME280;17710;52.520;13.352;2023-10-31T07:43:41;99147.00;;;16.30;83.02
31044;BME280;17710;52.520;13.352;2023-10-31T07:46:08;99151.91;;;16.25;82.54
31044;BME280;17710;52.520;13.352;2023-10-31T07:48:36;99162.69;;;16.24;81.71
31044;BME280;17710;52.520;13.352;2023-10-31T07:51:03;99162.56;;;16.25;80.93
31044;BME280;17710;52.520;13.352;2023-10-31T07:54:00;99162.63;;;16.56;79.15
31044;BME280;17710;52.520;13.352;2023-10-31T07:56:27;99172.19;;;16.38;79.31
31044;BME280;17710;52.520;13.352;2023-10-31T07:58:53;99194.31;;;16.17;79.20
31044;BME280;17710;52.520;13.352;2023-10-31T08:01:51;99191.03;;;15.93;80.00
31044;BME280;17710;52.520;13.352;2023-10-31T08:04:26;99171.25;;;16.48;77.70
31044;BME280;17710;52.520;13.352;2023-10-31T08:06:55;99179.47;;;16.04;77.21
31044;BME280;17710;52.520;13.352;2023-10-31T08:09:22;99185.69;;;16.25;75.94
31044;BME280;17710;52.520;13.352;2023-10-31T08:11:48;99182.41;;;15.89;76.27
31044;BME280;17710;52.520;13.352;2023-10-31T08:14:19;99194.88;;;16.00;76.32
31044;BME280;17710;52.520;13.352;2023-10-31T08:17:05;99197.44;;;15.90;75.93
31044;BME280;17710;52.520;13.352;2023-10-31T08:19:34;99187.63;;;16.23;74.32
31044;BME280;17710;52.520;13.352;2023-10-31T08:22:01;99199.59;;;16.28;74.01
31044;BME280;17710;52.520;13.352;2023-10-31T08:24:28;99204.75;;;16.20;73.67
31044;BME280;17710;52.520;13.352;2023-10-31T08:26:54;99200.78;;;16.35;73.00
31044;BME280;17710;52.520;13.352;2023-10-31T08:29:21;99212.75;;;16.09;72.23
31044;BME280;17710;52.520;13.352;2023-10-31T08:31:48;99221.53;;;15.89;71.37
31044;BME280;17710;52.520;13.352;2023-10-31T08:34:14;99221.75;;;15.97;71.96
31044;BME280;17710;52.520;13.352;2023-10-31T08:36:42;99230.97;;;15.82;72.79
31044;BME280;17710;52.520;13.352;2023-10-31T08:39:09;99233.41;;;15.85;72.68
31044;BME280;17710;52.520;13.352;2023-10-31T08:41:35;99229.91;;;16.27;70.43
31044;BME280;17710;52.520;13.352;2023-10-31T08:44:03;99229.13;;;16.37;68.97
31044;BME280;17710;52.520;13.352;2023-10-31T08:46:29;99236.41;;;16.87;68.04
31044;BME280;17710;52.520;13.352;2023-10-31T08:52:05;99241.31;;;16.82;65.99
31044;BME280;17710;52.520;13.352;2023-10-31T08:54:32;99231.22;;;16.33;66.26
31044;BME280;17710;52.520;13.352;2023-10-31T08:56:59;99249.19;;;16.20;66.83
31044;BME280;17710;52.520;13.352;2023-10-31T08:59:25;99241.44;;;16.49;66.94
31044;BME280;17710;52.520;13.352;2023-10-31T09:01:52;99243.69;;;16.32;66.72
31044;BME280;17710;52.520;13.352;2023-10-31T09:04:19;99242.44;;;16.05;66.77
31044;BME280;17710;52.520;13.352;2023-10-31T09:07:05;99254.75;;;15.74;67.82
31044;BME280;17710;52.520;13.352;2023-10-31T09:09:31;99249.72;;;16.03;67.29
31044;BME280;17710;52.520;13.352;2023-10-31T09:11:58;99251.66;;;16.44;65.12
31044;BME280;17710;52.520;13.352;2023-10-31T09:14:24;99259.97;;;16.18;65.47
31044;BME280;17710;52.520;13.352;2023-10-31T09:16:51;99268.44;;;16.66;63.97
31044;BME280;17710;52.520;13.352;2023-10-31T09:19:17;99263.09;;;16.87;63.08
31044;BME280;17710;52.520;13.352;2023-10-31T09:21:43;99272.09;;;16.86;61.01
31044;BME280;17710;52.520;13.352;2023-10-31T09:24:12;99275.13;;;16.82;61.52
31044;BME280;17710;52.520;13.352;2023-10-31T09:26:41;99273.59;;;17.00;60.98
31044;BME280;17710;52.520;13.352;2023-10-31T09:29:08;99261.94;;;16.80;61.01
31044;BME280;17710;52.520;13.352;2023-10-31T09:31:34;99274.75;;;16.65;60.89
31044;BME280;17710;52.520;13.352;2023-10-31T09:34:01;99272.16;;;16.32;61.76
31044;BME280;17710;52.520;13.352;2023-10-31T09:36:28;99264.53;;;16.91;61.56
31044;BME280;17710;52.520;13.352;2023-10-31T09:38:55;99282.34;;;16.70;60.27
31044;BME280;17710;52.520;13.352;2023-10-31T09:41:23;99290.03;;;16.84;60.39
31044;BME280;17710;52.520;13.352;2023-10-31T09:43:49;99295.13;;;17.08;59.85
31044;BME280;17710;52.520;13.352;2023-10-31T09:46:19;99300.41;;;16.23;62.63
31044;BME280;17710;52.520;13.352;2023-10-31T09:48:45;99306.38;;;16.05;63.16
31044;BME280;17710;52.520;13.352;2023-10-31T09:51:12;99311.13;;;15.90;64.48
31044;BME280;17710;52.520;13.352;2023-10-31T09:53:41;99303.19;;;16.22;62.50
31044;BME280;17710;52.520;13.352;2023-10-31T09:56:09;99308.94;;;16.60;61.74
31044;BME280;17710;52.520;13.352;2023-10-31T09:58:37;99316.22;;;16.90;60.55
31044;BME280;17710;52.520;13.352;2023-10-31T10:01:07;99303.25;;;17.27;59.70
31044;BME280;17710;52.520;13.352;2023-10-31T10:03:38;99318.41;;;17.47;58.36
31044;BME280;17710;52.520;13.352;2023-10-31T10:06:10;99316.41;;;16.98;58.74
31044;BME280;17710;52.520;13.352;2023-10-31T10:08:37;99323.81;;;17.16;59.39
31044;BME280;17710;52.520;13.352;2023-10-31T10:11:04;99329.38;;;17.24;58.89
31044;BME280;17710;52.520;13.352;2023-10-31T10:13:31;99328.88;;;16.77;60.02
31044;BME280;17710;52.520;13.352;2023-10-31T10:16:00;99323.84;;;16.52;60.29
31044;BME280;17710;52.520;13.352;2023-10-31T10:18:27;99337.31;;;16.50;62.45
31044;BME280;17710;52.520;13.352;2023-10-31T10:20:54;99332.97;;;16.81;60.67
31044;BME280;17710;52.520;13.352;2023-10-31T10:23:22;99341.25;;;16.78;60.62
31044;BME280;17710;52.520;13.352;2023-10-31T10:25:49;99340.16;;;17.01;60.56
31044;BME280;17710;52.520;13.352;2023-10-31T10:28:17;99332.88;;;17.45;59.18
31044;BME280;17710;52.520;13.352;2023-10-31T10:30:45;99338.34;;;17.64;58.40
31044;BME280;17710;52.520;13.352;2023-10-31T10:33:14;99336.00;;;17.08;59.00
31044;BME280;17710;52.520;13.352;2023-10-31T10:35:41;99334.25;;;17.19;59.59
31044;BME280;17710;52.520;13.352;2023-10-31T10:38:11;99328.16;;;17.58;58.26
31044;BME280;17710;52.520;13.352;2023-10-31T10:40:40;99341.13;;;17.21;58.71
31044;BME280;17710;52.520;13.352;2023-10-31T10:43:12;99340.97;;;16.81;60.01
31044;BME280;17710;52.520;13.352;2023-10-31T10:45:42;99351.13;;;17.19;59.26
31044;BME280;17710;52.520;13.352;2023-10-31T10:48:11;99335.47;;;17.56;58.10
31044;BME280;17710;52.520;13.352;2023-10-31T10:50:42;99331.50;;;17.50;57.50
31044;BME280;17710;52.520;13.352;2023-10-31T10:53:14;99322.72;;;17.39;57.79
31044;BME280;17710;52.520;13.352;2023-10-31T10:55:45;99316.66;;;17.37;56.96
31044;BME280;17710;52.520;13.352;2023-10-31T10:58:18;99320.28;;;17.57;57.38
31044;BME280;17710;52.520;13.352;2023-10-31T11:00:50;99309.44;;;17.28;57.34
31044;BME280;17710;52.520;13.352;2023-10-31T11:03:17;99320.09;;;17.69;56.57
31044;BME280;17710;52.520;13.352;2023-10-31T11:05:47;99312.63;;;17.63;56.54
31044;BME280;17710;52.520;13.352;2023-10-31T11:08:14;99314.94;;;17.77;55.53
31044;BME280;17710;52.520;13.352;2023-10-31T11:10:42;99318.34;;;17.59;56.54
31044;BME280;17710;52.520;13.352;2023-10-31T11:13:09;99320.94;;;17.49;56.78
31044;BME280;17710;52.520;13.352;2023-10-31T11:15:37;99311.66;;;17.23;56.42
31044;BME280;17710;52.520;13.352;2023-10-31T11:18:04;99312.44;;;17.13;57.49
31044;BME280;17710;52.520;13.352;2023-10-31T11:20:32;99328.84;;;17.30;57.12
31044;BME280;17710;52.520;13.352;2023-10-31T11:23:01;99320.28;;;16.94;58.11
31044;BME280;17710;52.520;13.352;2023-10-31T11:25:32;99331.44;;;17.20;57.93
31044;BME280;17710;52.520;13.352;2023-10-31T11:28:11;99327.16;;;17.59;56.45
31044;BME280;17710;52.520;13.352;2023-10-31T11:30:39;99332.72;;;17.67;56.98
31044;BME280;17710;52.520;13.352;2023-10-31T11:33:28;99347.31;;;17.84;56.04
31044;BME280;17710;52.520;13.352;2023-10-31T11:36:03;99342.06;;;17.52;57.40
31044;BME280;17710;52.520;13.352;2023-10-31T11:38:34;99339.91;;;17.25;57.57
31044;BME280;17710;52.520;13.352;2023-10-31T11:41:04;99337.16;;;17.16;58.25
31044;BME280;17710;52.520;13.352;2023-10-31T11:43:50;99344.63;;;17.01;59.20
31044;BME280;17710;52.520;13.352;2023-10-31T11:46:22;99354.38;;;17.23;58.76
31044;BME280;17710;52.520;13.352;2023-10-31T11:48:50;99351.38;;;17.37;57.98
31044;BME280;17710;52.520;13.352;2023-10-31T11:51:17;99360.34;;;17.15;59.62
31044;BME280;17710;52.520;13.352;2023-10-31T11:53:46;99360.56;;;17.44;57.91
31044;BME280;17710;52.520;13.352;2023-10-31T11:56:15;99362.22;;;17.86;57.58
31044;BME280;17710;52.520;13.352;2023-10-31T11:58:42;99376.53;;;17.85;56.54
31044;BME280;17710;52.520;13.352;2023-10-31T12:01:09;99378.31;;;17.54;58.23
31044;BME280;17710;52.520;13.352;2023-10-31T12:03:37;99372.09;;;17.65;57.47
31044;BME280;17710;52.520;13.352;2023-10-31T12:06:04;99379.97;;;17.25;58.15
31044;BME280;17710;52.520;13.352;2023-10-31T12:08:32;99390.25;;;17.30;57.68
31044;BME280;17710;52.520;13.352;2023-10-31T12:11:08;99384.47;;;16.93;58.65
31044;BME280;17710;52.520;13.352;2023-10-31T12:13:53;99386.97;;;17.05;58.21
31044;BME280;17710;52.520;13.352;2023-10-31T12:16:23;99384.03;;;16.77;58.15
31044;BME280;17710;52.520;13.352;2023-10-31T12:18:54;99394.91;;;16.30;59.95
31044;BME280;17710;52.520;13.352;2023-10-31T12:21:34;99396.09;;;16.38;59.54
31044;BME280;17710;52.520;13.352;2023-10-31T12:24:03;99405.03;;;16.70;58.93
31044;BME280;17710;52.520;13.352;2023-10-31T12:26:32;99396.97;;;16.92;58.11
31044;BME280;17710;52.520;13.352;2023-10-31T12:29:06;99406.34;;;16.76;58.02
31044;BME280;17710;52.520;13.352;2023-10-31T12:31:33;99412.59;;;16.97;57.46
31044;BME280;17710;52.520;13.352;2023-10-31T12:34:04;99419.00;;;17.05;57.45
31044;BME280;17710;52.520;13.352;2023-10-31T12:36:31;99411.56;;;17.09;56.28
31044;BME280;17710;52.520;13.352;2023-10-31T12:38:58;99411.44;;;17.10;56.58
31044;BME280;17710;52.520;13.352;2023-10-31T12:41:24;99410.09;;;17.16;56.35
31044;BME280;17710;52.520;13.352;2023-10-31T12:43:52;99410.50;;;17.32;55.32
31044;BME280;17710;52.520;13.352;2023-10-31T12:46:26;99421.50;;;17.18;55.19
31044;BME280;17710;52.520;13.352;2023-10-31T12:48:52;99422.34;;;17.19;54.90
31044;BME280;17710;52.520;13.352;2023-10-31T12:51:19;99420.81;;;17.05;55.27
31044;BME280;17710;52.520;13.352;2023-10-31T12:53:48;99442.06;;;16.95;55.88
31044;BME280;17710;52.520;13.352;2023-10-31T12:56:39;99442.88;;;17.07;55.58